Time;durP1;ratioP1;P1;durP2;ratioP2;P2;SDS_P1;SDS_P2;PMS_P1;PMS_P2;Temp;Humidity;BMP_temperature;BMP_pressure;BME280_temperature;BME280_humidity;BME280_pressure;Samples;Min_cycle;Max_cycle;Signal;HPM_P1;HPM_P2
2022/02/15 00:00:10;;;;;;;;;;;;;;;14.14;58.16;100246.41;1020818;29;683;-61
2022/02/15 00:01:00;;;;;;;;;;;;;;;14.14;58.03;100247.25;1020763;29;681;-61
2022/02/15 00:01:51;;;;;;;;;;;;;;;14.15;58.30;100248.09;1020564;29;1578;-61
2022/02/15 00:02:41;;;;;;;;;;;;;;;14.15;58.10;100250.78;1022045;29;713;-62
2022/02/15 00:03:32;;;;;;;;;;;;;;;14.16;58.52;100252.44;1022100;29;752;-61
2022/02/15 00:04:22;;;;;;;;;;;;;;;14.16;58.53;100249.78;1021994;29;755;-61
2022/02/15 00:05:12;;;;;;;;;;;;;;;14.16;58.30;100244.41;1021465;29;733;-61
2022/02/15 00:06:03;;;;;;;;;;;;;;;14.15;58.65;100254.28;1021923;29;784;-61
2022/02/15 00:06:53;;;;;;;;;;;;;;;14.15;58.71;100251.59;1021946;29;825;-62
2022/02/15 00:07:43;;;;;;;;;;;;;;;14.14;58.15;100257.97;1022071;29;741;-63
2022/02/15 00:08:34;;;;;;;;;;;;;;;14.14;58.33;100251.78;1021845;29;2045;-66
2022/02/15 00:09:24;;;;;;;;;;;;;;;14.13;58.41;100258.97;1022034;29;786;-64
2022/02/15 00:10:15;;;;;;;;;;;;;;;14.13;58.07;100256.28;1021757;29;2004;-64
2022/02/15 00:11:05;;;;;;;;;;;;;;;14.14;57.92;100249.94;1020892;29;675;-64
2022/02/15 00:11:56;;;;;;;;;;;;;;;14.12;57.94;100249.22;1020762;29;665;-63
2022/02/15 00:12:46;;;;;;;;;;;;;;;14.11;58.57;100252.88;1020909;29;755;-64
2022/02/15 00:13:37;;;;;;;;;;;;;;;14.12;58.70;100259.09;1021094;29;759;-65
2022/02/15 00:14:27;;;;;;;;;;;;;;;14.12;58.11;100259.94;1020795;29;770;-65
2022/02/15 00:15:17;;;;;;;;;;;;;;;14.12;57.80;100257.25;1022427;29;771;-66
2022/02/15 00:16:08;;;;;;;;;;;;;;;14.11;57.87;100254.72;1022357;29;751;-64
2022/02/15 00:16:58;;;;;;;;;;;;;;;14.11;58.17;100263.59;1022125;29;798;-65
2022/02/15 00:17:49;;;;;;;;;;;;;;;14.10;58.04;100256.53;1021060;29;959;-65
2022/02/15 00:18:39;;;;;;;;;;;;;;;14.12;58.89;100254.59;1020809;29;914;-65
2022/02/15 00:19:29;;;;;;;;;;;;;;;14.11;58.23;100263.59;1021056;29;707;-65
2022/02/15 00:20:20;;;;;;;;;;;;;;;14.10;58.71;100258.38;1020582;29;1899;-66
2022/02/15 00:21:10;;;;;;;;;;;;;;;14.09;58.53;100262.03;1022052;29;714;-64
2022/02/15 00:22:01;;;;;;;;;;;;;;;14.08;58.02;100261.19;1021267;29;717;-65
2022/02/15 00:22:51;;;;;;;;;;;;;;;14.07;58.57;100259.50;1021901;29;799;-65
2022/02/15 00:23:42;;;;;;;;;;;;;;;14.06;58.08;100256.94;1021958;29;723;-62
2022/02/15 00:24:32;;;;;;;;;;;;;;;14.05;58.47;100258.78;1022005;29;737;-64
2022/02/15 00:25:22;;;;;;;;;;;;;;;14.05;58.31;100258.78;1021394;29;760;-64
2022/02/15 00:26:13;;;;;;;;;;;;;;;14.06;58.44;100264.97;1022001;29;705;-64
2022/02/15 00:27:03;;;;;;;;;;;;;;;14.05;58.15;100272.19;1017141;29;945;-64
2022/02/15 00:27:54;;;;;;;;;;;;;;;14.07;58.01;100256.81;1017625;29;826;-63
2022/02/15 00:28:44;;;;;;;;;;;;;;;14.07;58.25;100264.84;1021109;29;2064;-64
2022/02/15 00:29:34;;;;;;;;;;;;;;;14.06;58.48;100263.16;1022246;29;732;-63
2022/02/15 00:30:25;;;;;;;;;;;;;;;14.05;58.65;100255.25;1021641;29;710;-63
2022/02/15 00:31:15;;;;;;;;;;;;;;;14.04;58.81;100267.81;1021931;29;742;-64
2022/02/15 00:32:06;;;;;;;;;;;;;;;14.05;58.40;100261.47;1020964;29;791;-64
2022/02/15 00:32:56;;;;;;;;;;;;;;;14.05;58.76;100264.13;1020916;29;946;-64
2022/02/15 00:33:46;;;;;;;;;;;;;;;14.07;58.64;100267.53;1020794;29;1032;-64
2022/02/15 00:34:37;;;;;;;;;;;;;;;14.08;58.53;100263.88;1020714;29;714;-65
2022/02/15 00:35:27;;;;;;;;;;;;;;;14.08;57.96;100258.50;1020783;29;912;-64
2022/02/15 00:36:18;;;;;;;;;;;;;;;14.08;58.31;100263.88;1021102;29;733;-64
2022/02/15 00:37:08;;;;;;;;;;;;;;;14.09;57.90;100259.34;1020797;29;708;-65
2022/02/15 00:37:58;;;;;;;;;;;;;;;14.08;58.49;100255.84;1020911;29;700;-65
2022/02/15 00:38:49;;;;;;;;;;;;;;;14.08;58.51;100263.88;1020438;29;1603;-65
2022/02/15 00:39:39;;;;;;;;;;;;;;;14.09;58.00;100264.72;1021851;29;947;-66
2022/02/15 00:40:30;;;;;;;;;;;;;;;14.08;58.42;100260.34;1021937;29;810;-65
2022/02/15 00:41:20;;;;;;;;;;;;;;;14.09;58.14;100262.03;1021845;29;738;-65
2022/02/15 00:42:11;;;;;;;;;;;;;;;14.08;58.58;100269.22;1021946;29;727;-64
2022/02/15 00:43:01;;;;;;;;;;;;;;;14.08;58.46;100265.69;1021880;29;648;-64
2022/02/15 00:43:51;;;;;;;;;;;;;;;14.07;58.66;100272.88;1021716;29;934;-64
2022/02/15 00:44:42;;;;;;;;;;;;;;;14.06;58.64;100268.50;1021829;29;714;-65
2022/02/15 00:45:32;;;;;;;;;;;;;;;14.07;58.89;100275.56;1021951;29;839;-64
2022/02/15 00:46:23;;;;;;;;;;;;;;;14.08;58.58;100279.94;1021843;29;698;-64
2022/02/15 00:47:15;;;;;;;;;;;;;;;14.06;58.30;100270.34;1017183;29;754;-66
2022/02/15 00:48:05;;;;;;;;;;;;;;;14.05;58.85;100264.13;1017512;29;751;-66
2022/02/15 00:48:56;;;;;;;;;;;;;;;14.05;58.09;100274.84;1021127;29;1890;-66
2022/02/15 00:49:46;;;;;;;;;;;;;;;14.02;58.72;100275.13;1021789;29;971;-66
2022/02/15 00:50:37;;;;;;;;;;;;;;;14.02;58.90;100272.44;1021864;29;1872;-66
2022/02/15 00:51:27;;;;;;;;;;;;;;;14.02;58.77;100269.75;1020791;29;697;-67
2022/02/15 00:52:18;;;;;;;;;;;;;;;14.04;58.55;100267.81;1020690;29;1930;-67
2022/02/15 00:53:08;;;;;;;;;;;;;;;14.06;58.81;100278.38;1021899;29;700;-65
2022/02/15 00:53:58;;;;;;;;;;;;;;;14.06;58.35;100275.69;1021204;29;966;-66
2022/02/15 00:54:49;;;;;;;;;;;;;;;14.06;58.15;100275.69;1021850;29;768;-64
2022/02/15 00:55:39;;;;;;;;;;;;;;;14.05;58.73;100269.50;1021858;29;791;-65
2022/02/15 00:56:30;;;;;;;;;;;;;;;14.04;58.10;100270.47;1021224;29;857;-64
2022/02/15 00:57:22;;;;;;;;;;;;;;;14.04;58.78;100269.63;1021917;29;709;-63
2022/02/15 00:58:12;;;;;;;;;;;;;;;14.05;58.53;100269.50;1021224;29;830;-63
2022/02/15 00:59:02;;;;;;;;;;;;;;;14.05;58.14;100269.50;1021779;29;710;-64
2022/02/15 00:59:53;;;;;;;;;;;;;;;14.07;58.49;100277.41;1021874;29;804;-64
2022/02/15 01:00:43;;;;;;;;;;;;;;;14.07;58.24;100272.03;1021563;29;1897;-64
2022/02/15 01:01:34;;;;;;;;;;;;;;;14.06;58.30;100273.88;1020885;29;765;-64
2022/02/15 01:02:24;;;;;;;;;;;;;;;14.06;58.86;100273.88;1020650;29;798;-64
2022/02/15 01:03:14;;;;;;;;;;;;;;;14.07;58.33;100272.03;1020872;29;850;-64
2022/02/15 01:04:05;;;;;;;;;;;;;;;14.07;59.19;100269.38;1020509;29;1103;-64
2022/02/15 01:04:55;;;;;;;;;;;;;;;14.07;58.32;100278.25;1020586;29;681;-64
2022/02/15 01:05:46;;;;;;;;;;;;;;;14.08;58.53;100271.06;1020845;29;797;-63
2022/02/15 01:06:36;;;;;;;;;;;;;;;14.07;58.33;100280.94;1020638;29;792;-64
2022/02/15 01:07:26;;;;;;;;;;;;;;;14.07;59.00;100283.59;1020925;29;689;-64
2022/02/15 01:08:17;;;;;;;;;;;;;;;14.08;59.03;100279.09;1022021;29;816;-65
2022/02/15 01:09:07;;;;;;;;;;;;;;;14.06;58.99;100289.94;1022108;29;695;-65
2022/02/15 01:09:58;;;;;;;;;;;;;;;14.03;58.20;100282.19;1021738;29;698;-65
2022/02/15 01:10:49;;;;;;;;;;;;;;;14.04;58.76;100283.88;1019906;29;1862;-65
2022/02/15 01:11:38;;;;;;;;;;;;;;;14.04;58.61;100294.59;1021971;29;805;-65
2022/02/15 01:12:27;;;;;;;;;;;;;;;14.04;58.52;100283.88;1021938;29;695;-65
2022/02/15 01:13:17;;;;;;;;;;;;;;;14.04;58.34;100296.41;1022002;29;778;-64
2022/02/15 01:14:06;;;;;;;;;;;;;;;14.04;58.97;100294.59;1021825;29;688;-64
2022/02/15 01:14:55;;;;;;;;;;;;;;;14.03;58.37;100300.94;1017631;29;736;-64
2022/02/15 01:15:45;;;;;;;;;;;;;;;14.04;58.62;100304.47;1017487;29;734;-65
2022/02/15 01:16:35;;;;;;;;;;;;;;;14.04;59.17;100302.63;1021322;29;702;-65
2022/02/15 01:17:26;;;;;;;;;;;;;;;14.05;58.23;100304.31;1021155;29;765;-65
2022/02/15 01:18:17;;;;;;;;;;;;;;;14.05;58.60;100301.66;1021766;29;755;-66
2022/02/15 01:19:08;;;;;;;;;;;;;;;14.05;59.10;100296.28;1020932;29;1849;-64
2022/02/15 01:19:58;;;;;;;;;;;;;;;14.05;58.97;100301.66;1021193;29;706;-65
2022/02/15 01:20:48;;;;;;;;;;;;;;;14.04;58.83;100296.41;1021888;29;858;-65
2022/02/15 01:21:39;;;;;;;;;;;;;;;14.04;59.23;100299.09;1021292;29;820;-65
2022/02/15 01:22:29;;;;;;;;;;;;;;;14.05;59.19;100296.28;1021827;29;754;-65
2022/02/15 01:23:20;;;;;;;;;;;;;;;14.05;58.89;100298.97;1021728;29;780;-65
2022/02/15 01:24:10;;;;;;;;;;;;;;;14.04;58.71;100305.31;1021831;29;803;-65
2022/02/15 01:25:01;;;;;;;;;;;;;;;14.04;58.93;100307.13;1021751;29;778;-65
2022/02/15 01:25:51;;;;;;;;;;;;;;;14.04;58.82;100305.31;1021697;29;837;-65
2022/02/15 01:26:41;;;;;;;;;;;;;;;14.04;59.04;100304.47;1021236;29;716;-65
2022/02/15 01:27:32;;;;;;;;;;;;;;;14.04;58.78;100302.63;1021016;29;808;-65
2022/02/15 01:28:22;;;;;;;;;;;;;;;14.03;58.98;100300.94;1021712;29;614;-62
2022/02/15 01:29:13;;;;;;;;;;;;;;;14.04;58.97;100307.13;1021570;29;1907;-65
2022/02/15 01:30:03;;;;;;;;;;;;;;;14.04;58.49;100302.63;1016637;29;717;-65
2022/02/15 01:30:54;;;;;;;;;;;;;;;14.04;58.40;100304.47;1017372;29;808;-65
2022/02/15 01:31:44;;;;;;;;;;;;;;;14.04;58.26;100307.13;1017283;29;929;-65
2022/02/15 01:32:34;;;;;;;;;;;;;;;14.06;58.39;100319.41;1017348;29;737;-63
2022/02/15 01:33:25;;;;;;;;;;;;;;;14.04;58.60;100307.97;1017760;29;753;-64
2022/02/15 01:34:15;;;;;;;;;;;;;;;14.04;58.61;100318.69;1017117;29;1143;-65
2022/02/15 01:35:06;;;;;;;;;;;;;;;14.05;58.69;100314.19;1017243;29;767;-64
2022/02/15 01:35:56;;;;;;;;;;;;;;;14.04;58.83;100313.34;1017200;29;905;-65
2022/02/15 01:36:47;;;;;;;;;;;;;;;14.04;58.89;100313.34;1017285;29;700;-63
2022/02/15 01:37:37;;;;;;;;;;;;;;;14.04;58.74;100316.03;1017218;29;784;-64
2022/02/15 01:38:28;;;;;;;;;;;;;;;14.04;58.39;100310.66;1017248;29;726;-64
2022/02/15 01:39:18;;;;;;;;;;;;;;;14.04;59.13;100318.69;1016682;29;771;-64
2022/02/15 01:40:09;;;;;;;;;;;;;;;14.05;58.44;100323.06;1013056;29;861;-65
2022/02/15 01:41:01;;;;;;;;;;;;;;;14.04;59.02;100321.38;1014689;29;1982;-64
2022/02/15 01:41:52;;;;;;;;;;;;;;;14.04;58.64;100316.03;1021436;29;768;-63
2022/02/15 01:42:42;;;;;;;;;;;;;;;14.03;59.03;100319.69;1021684;29;716;-64
2022/02/15 01:43:33;;;;;;;;;;;;;;;14.03;59.17;100321.50;1020674;29;797;-64
2022/02/15 01:44:23;;;;;;;;;;;;;;;14.03;58.55;100319.69;1020400;29;917;-63
2022/02/15 01:45:17;;;;;;;;;;;;;;;14.04;59.15;100321.38;1020750;29;736;-63
2022/02/15 01:46:08;;;;;;;;;;;;;;;14.03;58.43;100319.69;1021592;29;813;-64
2022/02/15 01:46:58;;;;;;;;;;;;;;;14.03;58.46;100316.16;1020460;29;917;-64
2022/02/15 01:47:49;;;;;;;;;;;;;;;14.03;58.56;100319.69;1021993;29;709;-64
2022/02/15 01:48:43;;;;;;;;;;;;;;;14.03;59.08;100319.69;1021839;29;1976;-64
2022/02/15 01:49:33;;;;;;;;;;;;;;;14.03;58.47;100319.69;1020922;29;1637;-64
2022/02/15 01:50:24;;;;;;;;;;;;;;;14.02;59.01;100323.34;1021154;29;797;-64
2022/02/15 01:51:14;;;;;;;;;;;;;;;14.01;59.04;100316.28;1021226;29;750;-64
2022/02/15 01:52:05;;;;;;;;;;;;;;;14.01;59.01;100321.66;1021732;29;700;-64
2022/02/15 01:52:55;;;;;;;;;;;;;;;14.02;58.98;100326.03;1021136;29;816;-65
2022/02/15 01:53:46;;;;;;;;;;;;;;;14.01;58.96;100332.34;1021158;29;1185;-64
2022/02/15 01:54:36;;;;;;;;;;;;;;;14.00;59.16;100330.66;1021599;29;805;-64
2022/02/15 01:55:27;;;;;;;;;;;;;;;14.01;59.28;100332.34;1021710;29;713;-64
2022/02/15 01:56:17;;;;;;;;;;;;;;;14.01;58.92;100332.34;1021672;29;722;-64
2022/02/15 01:57:07;;;;;;;;;;;;;;;14.01;59.35;100331.50;1021637;29;787;-64
2022/02/15 01:57:58;;;;;;;;;;;;;;;14.01;59.24;100331.50;1021589;29;733;-63
2022/02/15 01:58:48;;;;;;;;;;;;;;;14.01;58.36;100332.34;1021585;29;805;-64
2022/02/15 01:59:39;;;;;;;;;;;;;;;14.00;59.29;100330.66;1021329;29;1885;-63
2022/02/15 02:00:29;;;;;;;;;;;;;;;13.99;58.68;100328.97;1020466;29;790;-62
2022/02/15 02:01:19;;;;;;;;;;;;;;;13.99;58.63;100334.31;1020501;29;632;-62
2022/02/15 02:02:10;;;;;;;;;;;;;;;13.99;59.32;100331.66;1020673;29;779;-63
2022/02/15 02:03:00;;;;;;;;;;;;;;;14.00;59.35;100336.03;1020320;29;743;-64
2022/02/15 02:03:51;;;;;;;;;;;;;;;14.00;59.22;100336.03;1020466;29;1309;-62
2022/02/15 02:05:50;;;;;;;;;;;;;;;14.00;59.44;100341.38;1022097;29;645;-62
2022/02/15 02:06:41;;;;;;;;;;;;;;;13.98;58.60;100335.31;1020595;29;769;-62
2022/02/15 02:07:31;;;;;;;;;;;;;;;13.99;59.25;100337.00;1020432;29;738;-62
2022/02/15 02:08:21;;;;;;;;;;;;;;;13.98;58.87;100337.97;1020478;29;749;-63
2022/02/15 02:09:12;;;;;;;;;;;;;;;13.98;58.53;100337.97;1020590;29;956;-63
2022/02/15 02:10:02;;;;;;;;;;;;;;;13.98;59.26;100337.13;1020500;29;787;-63
2022/02/15 02:10:54;;;;;;;;;;;;;;;13.98;58.74;100337.97;1020581;29;767;-60
2022/02/15 02:11:44;;;;;;;;;;;;;;;13.97;59.14;100346.19;1021352;29;2104;-62
2022/02/15 02:12:34;;;;;;;;;;;;;;;13.96;58.44;100342.66;1020611;29;694;-62
2022/02/15 02:13:25;;;;;;;;;;;;;;;13.95;58.93;100342.78;1020543;29;927;-62
2022/02/15 02:14:16;;;;;;;;;;;;;;;13.93;59.24;100344.75;1021786;29;791;-63
2022/02/15 02:15:07;;;;;;;;;;;;;;;13.92;58.78;100341.22;1021318;29;764;-62
2022/02/15 02:15:58;;;;;;;;;;;;;;;13.91;58.62;100336.84;1021165;29;703;-64
2022/02/15 02:16:48;;;;;;;;;;;;;;;13.92;59.34;100335.84;1020482;29;704;-65
2022/02/15 02:17:39;;;;;;;;;;;;;;;13.94;59.50;100339.25;1020510;29;794;-62
2022/02/15 02:18:29;;;;;;;;;;;;;;;13.94;58.75;100343.75;1020380;29;792;-63
2022/02/15 02:19:19;;;;;;;;;;;;;;;13.94;59.28;100335.72;1020407;29;772;-61
2022/02/15 02:20:10;;;;;;;;;;;;;;;13.94;58.91;100336.56;1020459;29;1826;-61
2022/02/15 02:21:00;;;;;;;;;;;;;;;13.95;59.62;100338.28;1020480;29;731;-62
2022/02/15 02:21:51;;;;;;;;;;;;;;;13.94;58.79;100336.56;1020472;29;865;-63
2022/02/15 02:22:41;;;;;;;;;;;;;;;13.95;59.36;100338.28;1020309;29;818;-63
2022/02/15 02:23:32;;;;;;;;;;;;;;;13.96;59.42;100344.47;1020263;29;1982;-63
2022/02/15 02:24:22;;;;;;;;;;;;;;;13.95;58.68;100338.28;1020247;29;842;-62
2022/02/15 02:25:12;;;;;;;;;;;;;;;13.94;58.61;100344.63;1020563;29;741;-64
2022/02/15 02:26:03;;;;;;;;;;;;;;;13.93;58.93;100337.56;1020737;29;817;-62
2022/02/15 02:26:53;;;;;;;;;;;;;;;13.94;59.53;100341.09;1020433;29;798;-63
2022/02/15 02:27:44;;;;;;;;;;;;;;;13.93;58.57;100339.38;1020609;29;754;-63
2022/02/15 02:28:34;;;;;;;;;;;;;;;13.94;58.53;100336.56;1020382;29;770;-63
2022/02/15 02:29:25;;;;;;;;;;;;;;;13.93;58.79;100340.22;1020573;29;725;-63
2022/02/15 02:30:15;;;;;;;;;;;;;;;13.95;58.78;100348.13;1016960;29;862;-62
2022/02/15 02:31:05;;;;;;;;;;;;;;;13.94;59.18;100344.63;1016896;29;738;-64
2022/02/15 02:31:56;;;;;;;;;;;;;;;13.94;59.06;100341.09;1012828;29;805;-64
2022/02/15 02:32:46;;;;;;;;;;;;;;;13.93;58.86;100339.38;1013966;29;729;-64
2022/02/15 02:33:37;;;;;;;;;;;;;;;13.93;59.19;100337.56;1017203;29;766;-65
2022/02/15 02:34:27;;;;;;;;;;;;;;;13.95;58.86;100329.38;1016926;29;936;-67
2022/02/15 02:35:18;;;;;;;;;;;;;;;13.95;58.93;100342.78;1016990;29;796;-65
2022/02/15 02:36:09;;;;;;;;;;;;;;;13.94;58.53;100341.09;1016835;29;702;-66
2022/02/15 02:36:59;;;;;;;;;;;;;;;13.93;59.20;100340.22;1016954;29;750;-65
2022/02/15 02:37:50;;;;;;;;;;;;;;;13.93;58.71;100339.38;1017077;29;710;-65
2022/02/15 02:38:40;;;;;;;;;;;;;;;13.93;59.24;100339.38;1016877;29;868;-66
2022/02/15 02:39:31;;;;;;;;;;;;;;;13.93;59.32;100342.91;1012984;29;776;-66
2022/02/15 02:40:21;;;;;;;;;;;;;;;13.93;58.63;100337.56;1013262;29;807;-66
2022/02/15 02:41:12;;;;;;;;;;;;;;;13.94;58.58;100341.09;1017242;29;1394;-67
2022/02/15 02:42:02;;;;;;;;;;;;;;;13.94;58.84;100343.75;1019816;29;1716;-66
2022/02/15 02:42:53;;;;;;;;;;;;;;;13.93;59.52;100334.88;1021393;29;859;-66
2022/02/15 02:43:43;;;;;;;;;;;;;;;13.93;58.63;100326.84;1020777;29;793;-66
2022/02/15 02:44:33;;;;;;;;;;;;;;;13.91;58.72;100336.84;1021402;29;740;-66
2022/02/15 02:45:24;;;;;;;;;;;;;;;13.92;58.86;100335.84;1021613;29;782;-65
2022/02/15 02:46:14;;;;;;;;;;;;;;;13.93;58.66;100334.03;1021551;29;769;-64
2022/02/15 02:47:05;;;;;;;;;;;;;;;13.91;58.56;100336.84;1021568;29;767;-64
2022/02/15 02:47:55;;;;;;;;;;;;;;;13.90;59.29;100341.34;1021492;29;763;-64
2022/02/15 02:48:46;;;;;;;;;;;;;;;13.90;58.79;100349.38;1021399;29;1898;-64
2022/02/15 02:49:36;;;;;;;;;;;;;;;13.89;59.09;100338.78;1021557;29;693;-64
2022/02/15 02:50:29;;;;;;;;;;;;;;;13.88;58.92;100343.31;1021509;29;713;-63
2022/02/15 02:51:19;;;;;;;;;;;;;;;13.90;58.65;100345.84;1020930;29;949;-63
2022/02/15 02:52:10;;;;;;;;;;;;;;;13.90;58.63;100351.22;1020876;29;705;-63
2022/02/15 02:53:00;;;;;;;;;;;;;;;13.89;58.89;100352.19;1017176;29;785;-62
2022/02/15 02:53:50;;;;;;;;;;;;;;;13.87;58.76;100341.59;1017058;29;1998;-64
2022/02/15 02:54:41;;;;;;;;;;;;;;;13.89;59.18;100349.50;1021538;29;672;-64
2022/02/15 02:55:31;;;;;;;;;;;;;;;13.88;58.96;100340.63;1020293;29;690;-64
2022/02/15 02:56:22;;;;;;;;;;;;;;;13.90;58.92;100340.50;1020514;29;1262;-64
2022/02/15 02:57:15;;;;;;;;;;;;;;;13.90;59.22;100335.13;1020149;29;854;-64
2022/02/15 02:58:06;;;;;;;;;;;;;;;13.89;59.56;100334.28;1020550;29;799;-64
2022/02/15 02:58:56;;;;;;;;;;;;;;;13.89;59.51;100336.97;1020983;29;759;-65
2022/02/15 02:59:47;;;;;;;;;;;;;;;13.89;58.75;100336.13;1020443;29;671;-64
2022/02/15 03:00:37;;;;;;;;;;;;;;;13.91;59.54;100342.19;1020438;29;710;-64
2022/02/15 03:01:27;;;;;;;;;;;;;;;13.92;59.46;100335.84;1020275;29;854;-65
2022/02/15 03:02:18;;;;;;;;;;;;;;;13.92;58.69;100337.69;1020491;29;769;-64
2022/02/15 03:03:08;;;;;;;;;;;;;;;13.89;59.16;100345.00;1020294;29;797;-65
2022/02/15 03:03:59;;;;;;;;;;;;;;;13.90;58.88;100344.03;1021395;29;925;-64
2022/02/15 03:04:49;;;;;;;;;;;;;;;13.90;59.47;100343.19;1020194;29;692;-65
2022/02/15 03:05:40;;;;;;;;;;;;;;;13.91;59.37;100344.88;1021497;29;2011;-64
2022/02/15 03:06:30;;;;;;;;;;;;;;;13.92;59.43;100343.91;1021029;29;1951;-64
2022/02/15 03:07:21;;;;;;;;;;;;;;;13.92;59.40;100345.72;1021202;29;1883;-65
2022/02/15 03:08:11;;;;;;;;;;;;;;;13.90;58.75;100348.53;1020163;29;810;-65
2022/02/15 03:09:02;;;;;;;;;;;;;;;13.91;59.57;100347.56;1020342;29;1975;-65
2022/02/15 03:09:52;;;;;;;;;;;;;;;13.90;59.38;100351.22;1020194;29;917;-66
2022/02/15 03:10:42;;;;;;;;;;;;;;;13.90;59.22;100359.25;1020329;29;707;-65
2022/02/15 03:11:33;;;;;;;;;;;;;;;13.91;58.72;100352.91;1020415;29;771;-66
2022/02/15 03:12:23;;;;;;;;;;;;;;;13.91;59.04;100358.25;1020231;29;757;-66
2022/02/15 03:13:14;;;;;;;;;;;;;;;13.91;59.33;100358.25;1020382;29;705;-66
2022/02/15 03:14:04;;;;;;;;;;;;;;;13.91;59.52;100358.25;1020776;29;765;-66
2022/02/15 03:14:54;;;;;;;;;;;;;;;13.90;58.78;100354.75;1020311;29;713;-66
2022/02/15 03:15:45;;;;;;;;;;;;;;;13.89;59.50;100357.53;1021697;29;930;-66
2022/02/15 03:16:35;;;;;;;;;;;;;;;13.88;58.91;100356.69;1021129;29;711;-66
2022/02/15 03:17:26;;;;;;;;;;;;;;;13.88;59.14;100359.38;1021432;29;1891;-65
2022/02/15 03:18:16;;;;;;;;;;;;;;;13.88;58.76;100358.53;1016253;29;890;-66
2022/02/15 03:19:07;;;;;;;;;;;;;;;13.89;59.27;100365.59;1016825;29;960;-66
2022/02/15 03:19:57;;;;;;;;;;;;;;;13.87;58.81;100356.81;1016915;29;733;-66
2022/02/15 03:20:48;;;;;;;;;;;;;;;13.87;59.24;100364.88;1016958;29;793;-66
2022/02/15 03:21:38;;;;;;;;;;;;;;;13.88;58.75;100369.25;1017021;29;745;-66
2022/02/15 03:22:28;;;;;;;;;;;;;;;13.87;58.70;100368.38;1017433;29;923;-67
2022/02/15 03:23:19;;;;;;;;;;;;;;;13.87;59.21;100372.91;1016946;29;711;-66
2022/02/15 03:24:09;;;;;;;;;;;;;;;13.86;58.92;100377.41;1017458;29;944;-66
2022/02/15 03:25:00;;;;;;;;;;;;;;;13.84;59.78;100370.47;1012783;29;748;-66
2022/02/15 03:25:50;;;;;;;;;;;;;;;13.84;58.66;100379.38;1014502;29;837;-65
2022/02/15 03:26:41;;;;;;;;;;;;;;;13.83;59.67;100382.16;1013256;29;712;-63
2022/02/15 03:27:31;;;;;;;;;;;;;;;13.82;59.59;100377.78;1018086;29;714;-61
2022/02/15 03:28:22;;;;;;;;;;;;;;;13.83;58.95;100383.03;1017988;29;795;-63
2022/02/15 03:29:12;;;;;;;;;;;;;;;13.83;59.00;100385.69;1018095;29;1903;-64
2022/02/15 03:30:02;;;;;;;;;;;;;;;13.83;59.13;100385.69;1017956;29;773;-63
2022/02/15 03:30:53;;;;;;;;;;;;;;;13.83;59.48;100384.84;1017955;29;771;-63
2022/02/15 03:31:43;;;;;;;;;;;;;;;13.83;59.58;100392.88;1018060;29;687;-63
2022/02/15 03:32:34;;;;;;;;;;;;;;;13.83;58.84;100387.53;1017966;29;787;-63
2022/02/15 03:33:24;;;;;;;;;;;;;;;13.82;58.80;100391.19;1018142;29;738;-63
2022/02/15 03:34:15;;;;;;;;;;;;;;;13.83;59.31;100390.19;1017952;29;1060;-63
2022/02/15 03:35:05;;;;;;;;;;;;;;;13.83;59.17;100388.38;1017890;29;733;-63
2022/02/15 03:35:55;;;;;;;;;;;;;;;13.82;59.27;100396.53;1018598;28;770;-63
2022/02/15 03:36:46;;;;;;;;;;;;;;;13.83;58.96;100392.88;1018406;28;781;-64
2022/02/15 03:37:36;;;;;;;;;;;;;;;13.83;59.20;100395.56;1018514;29;702;-65
2022/02/15 03:38:27;;;;;;;;;;;;;;;13.83;58.99;100395.56;1018537;28;739;-64
2022/02/15 03:39:17;;;;;;;;;;;;;;;13.82;58.83;100397.38;1018579;29;714;-63
2022/02/15 03:40:08;;;;;;;;;;;;;;;13.84;59.46;100400.78;1018445;28;827;-65
2022/02/15 03:43:16;;;;;;;;;;;;;;;13.84;59.35;100407.97;1016867;29;860;-61
2022/02/15 03:44:07;;;;;;;;;;;;;;;13.84;59.66;100408.81;1017440;29;713;-60
2022/02/15 03:44:57;;;;;;;;;;;;;;;13.83;59.65;100403.59;1018310;29;1775;-63
2022/02/15 03:45:49;;;;;;;;;;;;;;;13.83;58.96;100414.31;1020309;29;763;-62
2022/02/15 03:46:39;;;;;;;;;;;;;;;13.84;59.69;100416.00;1021381;29;637;-65
2022/02/15 03:47:30;;;;;;;;;;;;;;;13.82;59.02;100412.59;1020277;29;793;-61
2022/02/15 03:48:20;;;;;;;;;;;;;;;13.83;59.28;100412.47;1020021;29;1637;-64
2022/02/15 03:49:12;;;;;;;;;;;;;;;13.84;59.81;100416.00;1019109;29;1898;-64
2022/02/15 03:50:02;;;;;;;;;;;;;;;13.83;59.78;100415.16;1020763;29;1407;-64
2022/02/15 03:50:52;;;;;;;;;;;;;;;13.86;59.06;100411.38;1019496;29;1505;-64
2022/02/15 03:51:43;;;;;;;;;;;;;;;13.84;59.12;100410.66;1020957;29;798;-65
2022/02/15 03:52:33;;;;;;;;;;;;;;;13.84;59.68;100424.03;1020818;29;756;-64
2022/02/15 03:53:24;;;;;;;;;;;;;;;13.84;59.78;100414.19;1020500;29;1309;-66
2022/02/15 03:54:14;;;;;;;;;;;;;;;13.85;59.24;100412.34;1018813;29;1414;-65
2022/02/15 03:55:05;;;;;;;;;;;;;;;13.85;59.86;100415.03;1020379;29;1633;-62
2022/02/15 03:55:55;;;;;;;;;;;;;;;13.86;59.15;100424.75;1020145;29;1410;-63
2022/02/15 03:56:46;;;;;;;;;;;;;;;13.84;58.96;100416.88;1021017;29;1359;-63
2022/02/15 03:57:36;;;;;;;;;;;;;;;13.83;59.68;100415.16;1019695;29;1394;-63
2022/02/15 03:58:27;;;;;;;;;;;;;;;13.84;59.12;100416.00;1021489;29;694;-63
2022/02/15 03:59:17;;;;;;;;;;;;;;;13.84;59.74;100421.38;1021531;29;1522;-64
2022/02/15 04:00:07;;;;;;;;;;;;;;;13.82;59.34;100423.31;1021133;29;1458;-63
2022/02/15 04:00:58;;;;;;;;;;;;;;;13.83;59.09;100425.03;1019985;29;1290;-62
2022/02/15 04:01:48;;;;;;;;;;;;;;;13.82;59.78;100424.19;1018647;29;1437;-63
2022/02/15 04:02:39;;;;;;;;;;;;;;;13.81;59.77;100426.97;1020120;29;1406;-63
2022/02/15 04:03:29;;;;;;;;;;;;;;;13.81;59.66;100417.13;1021220;29;1717;-63
2022/02/15 04:04:19;;;;;;;;;;;;;;;13.81;59.37;100426.97;1020809;29;1453;-64
2022/02/15 04:05:10;;;;;;;;;;;;;;;13.78;59.71;100427.25;1021391;29;1289;-64
2022/02/15 04:06:00;;;;;;;;;;;;;;;13.79;59.18;100434.31;1020174;29;1484;-64
2022/02/15 04:06:51;;;;;;;;;;;;;;;13.79;58.96;100435.13;1021569;29;1575;-63
2022/02/15 04:07:42;;;;;;;;;;;;;;;13.80;59.97;100434.16;1020891;29;1390;-63
2022/02/15 04:08:32;;;;;;;;;;;;;;;13.81;60.03;100433.19;1021712;29;1509;-63
2022/02/15 04:09:23;;;;;;;;;;;;;;;13.82;59.35;100439.41;1020570;29;1508;-64
2022/02/15 04:10:14;;;;;;;;;;;;;;;13.82;59.78;100440.25;1021297;29;1575;-63
2022/02/15 04:11:04;;;;;;;;;;;;;;;13.81;58.94;100437.69;1021832;29;1565;-61
2022/02/15 04:11:55;;;;;;;;;;;;;;;13.81;58.96;100443.06;1019572;29;1468;-61
2022/02/15 04:12:45;;;;;;;;;;;;;;;13.80;59.83;100447.56;1020909;29;1583;-62
2022/02/15 04:13:36;;;;;;;;;;;;;;;13.79;59.73;100445.03;1020484;29;1887;-62
2022/02/15 04:14:26;;;;;;;;;;;;;;;13.80;59.87;100444.03;1019895;29;1568;-63
2022/02/15 04:15:16;;;;;;;;;;;;;;;13.81;60.04;100443.06;1019576;29;1583;-63
2022/02/15 04:16:08;;;;;;;;;;;;;;;13.81;59.24;100449.25;1021522;29;1364;-63
2022/02/15 04:16:59;;;;;;;;;;;;;;;13.81;59.95;100448.41;1018977;29;1360;-63
2022/02/15 04:17:49;;;;;;;;;;;;;;;13.82;59.68;100452.78;1021332;29;1518;-63
2022/02/15 04:18:47;;;;;;;;;;;;;;;13.80;59.52;100450.22;1020005;29;1382;-63
2022/02/15 04:19:39;;;;;;;;;;;;;;;13.80;59.90;100454.75;1018010;29;1498;-64
2022/02/15 04:20:29;;;;;;;;;;;;;;;13.80;60.05;100452.06;1021699;29;1696;-63
2022/02/15 04:21:20;;;;;;;;;;;;;;;13.80;59.84;100454.75;1020077;29;1368;-63
2022/02/15 04:22:11;;;;;;;;;;;;;;;13.81;59.33;100453.75;1021576;29;1575;-65
2022/02/15 04:23:01;;;;;;;;;;;;;;;13.81;59.02;100453.75;1020074;29;1632;-64
2022/02/15 04:23:51;;;;;;;;;;;;;;;13.80;59.13;100452.06;1021872;29;1488;-63
2022/02/15 04:24:42;;;;;;;;;;;;;;;13.79;59.86;100453.06;1020244;29;1376;-64
2022/02/15 04:25:32;;;;;;;;;;;;;;;13.78;59.44;100457.56;1021704;29;1575;-63
2022/02/15 04:26:23;;;;;;;;;;;;;;;13.78;59.92;100464.75;1020476;29;1313;-62
2022/02/15 04:27:13;;;;;;;;;;;;;;;13.77;59.80;100452.34;1021101;29;1692;-64
2022/02/15 04:28:04;;;;;;;;;;;;;;;13.78;59.89;100454.03;1018722;29;1578;-64
2022/02/15 04:28:54;;;;;;;;;;;;;;;13.78;59.70;100454.03;1020391;29;1952;-64